Terminal Aerodrome Forecast
Issued by NWS

Home | Current Version | Previous Version | Text Only | Print | Product List | Glossary On
Versions: 1 2 3 4 5 6 7 8 9 10 11
000
FTUS42 TJSJ 131739
TAFJMZ
TAF
TJMZ 131739Z 1318/1418 27010KT P6SM VCSH SCT025 SCT040
      TEMPO 1318/1320 -SHRA BKN030
     FM132200 06006KT P6SM FEW040 FEW100
     FM141530 25010KT P6SM VCSH SCT025 SCT040
      AMD NOT SKED=

USA.gov is the U.S. government's official web portal to all federal, state and local government web resources and services.